Etusivu
METAR-TAF:

METAR-TAF

Lentoasemat :

Lemmijoki, Norja

Leveyspiiri: 70-04N, Pituuspiiri: 024-59E, korkeus merenpinnasta: 0 m

Tämänhetkinen sää

Tämä raportti tehtiin 26 minuuttia sitten, kello 19.50 UTC
Tuuli 3 kn pohjoisen/luoteesta
Lämpötila 3°C
Kosteus 93%
Ilmanpaine 1027 hPa
Näkyvyys 10 km tai enemmän
Muutamia pilviä 1200 ft:n korkeudessa
Hajonneita pilviä 3900 ft:n korkeudessa

METAR: ENNA 241950Z 33003KT 9999 FEW012 BKN039 03/02 Q1027 RMK WIND 1800FT 17005KT

Aika: 22:16 (20:16 UTC)

Sääennuste

Ennuste voimassa 24. päivästä klo 18 UTC - 25. päivään klo 18 UTC
Tuuli 5 kn pohjoisesta
Näkyvyys 10 km tai enemmän
Muutamia pilviä 1500 ft:n korkeudessa
Hajonneita pilviä 3000 ft:n korkeudessa
Tulossa
25. päivästä klo 00 UTC - 25. päivään klo 03 UTC
Tuuli 10 kn etelästä
Ajoittain
25. päivästä klo 06 UTC - 25. päivään klo 14 UTC
Tuuli 15 kn etelästä puuskistuen 25 kn:hen

TAF: ENNA 2418/2518 35005KT 9999 FEW015 BKN030 BECMG 2500/2503 18010KT TEMPO 2506/2514 18015G25KT

Säähavainnot ja -ennusteet yli 4000 lentoasemalta (METAR- ja TAF-raportit).

Käytössä olevat sääasemat on merkitty karttaan keltaisilla ja punaisilla pisteillä.

Aseta hiiri pisteen päälle nähdäksesi sääaseman nimen.

Klikkaa sitten nähdäksesi säähavainnot ja -ennusteet.

Kartan vaihtaminen: klikkaa mustalla rastilla varustettuja vihreitä pisteitä, niin voit zoomata sisään; viivalla varustettua vihreää pistettä, niin voit zoomata ulos tai vihreitä nuolia, niin pääset viereisille kartoille.


METAR-TAF: